sensor_id;sensor_type;location;lat;lon;timestamp;temperature;humidity
51725;DHT22;37801;53.224;6.552;2023-08-01T00:00:06;17.90;99.90
51725;DHT22;37801;53.224;6.552;2023-08-01T00:02:34;17.30;99.90
51725;DHT22;37801;53.224;6.552;2023-08-01T00:04:59;17.80;99.90
51725;DHT22;37801;53.224;6.552;2023-08-01T00:07:27;17.90;99.90
51725;DHT22;37801;53.224;6.552;2023-08-01T00:09:53;17.80;99.90
51725;DHT22;37801;53.224;6.552;2023-08-01T00:12:18;17.00;99.90
51725;DHT22;37801;53.224;6.552;2023-08-01T00:14:44;17.60;99.90
51725;DHT22;37801;53.224;6.552;2023-08-01T00:17:10;17.50;99.90
51725;DHT22;37801;53.224;6.552;2023-08-01T00:19:35;17.00;99.90
51725;DHT22;37801;53.224;6.552;2023-08-01T00:22:01;16.50;99.90
51725;DHT22;37801;53.224;6.552;2023-08-01T00:24:27;16.40;99.90
51725;DHT22;37801;53.224;6.552;2023-08-01T00:26:52;17.60;99.90
51725;DHT22;37801;53.224;6.552;2023-08-01T00:29:21;16.40;99.90
51725;DHT22;37801;53.224;6.552;2023-08-01T00:31:47;16.80;99.90
51725;DHT22;37801;53.224;6.552;2023-08-01T00:34:12;16.70;99.90
51725;DHT22;37801;53.224;6.552;2023-08-01T00:36:38;16.30;99.90
51725;DHT22;37801;53.224;6.552;2023-08-01T00:39:03;16.50;99.90
51725;DHT22;37801;53.224;6.552;2023-08-01T00:41:29;16.30;99.90
51725;DHT22;37801;53.224;6.552;2023-08-01T00:43:55;16.50;99.90
51725;DHT22;37801;53.224;6.552;2023-08-01T00:46:21;17.40;99.90
51725;DHT22;37801;53.224;6.552;2023-08-01T00:48:46;17.10;99.90
51725;DHT22;37801;53.224;6.552;2023-08-01T00:51:13;16.30;99.90
51725;DHT22;37801;53.224;6.552;2023-08-01T00:53:39;16.30;99.90
51725;DHT22;37801;53.224;6.552;2023-08-01T00:56:25;17.40;99.90
51725;DHT22;37801;53.224;6.552;2023-08-01T00:59:12;16.50;99.90
51725;DHT22;37801;53.224;6.552;2023-08-01T01:01:38;17.20;99.90
51725;DHT22;37801;53.224;6.552;2023-08-01T01:04:04;16.50;99.90
51725;DHT22;37801;53.224;6.552;2023-08-01T01:06:40;16.30;99.90
51725;DHT22;37801;53.224;6.552;2023-08-01T01:09:19;17.10;99.90
51725;DHT22;37801;53.224;6.552;2023-08-01T01:11:46;16.20;99.90
51725;DHT22;37801;53.224;6.552;2023-08-01T01:14:32;16.50;99.90
51725;DHT22;37801;53.224;6.552;2023-08-01T01:17:17;16.40;99.90
51725;DHT22;37801;53.224;6.552;2023-08-01T01:20:03;16.70;99.90
51725;DHT22;37801;53.224;6.552;2023-08-01T01:22:49;17.10;99.90
51725;DHT22;37801;53.224;6.552;2023-08-01T01:25:36;16.30;99.90
51725;DHT22;37801;53.224;6.552;2023-08-01T01:28:23;17.10;99.90
51725;DHT22;37801;53.224;6.552;2023-08-01T01:31:10;17.00;99.90
51725;DHT22;37801;53.224;6.552;2023-08-01T01:33:56;17.00;99.90
51725;DHT22;37801;53.224;6.552;2023-08-01T01:36:42;16.40;99.90
51725;DHT22;37801;53.224;6.552;2023-08-01T01:39:27;16.00;99.90
51725;DHT22;37801;53.224;6.552;2023-08-01T01:42:13;16.50;99.90
51725;DHT22;37801;53.224;6.552;2023-08-01T01:44:59;16.60;99.90
51725;DHT22;37801;53.224;6.552;2023-08-01T01:47:44;16.20;99.90
51725;DHT22;37801;53.224;6.552;2023-08-01T01:50:30;16.60;99.90
51725;DHT22;37801;53.224;6.552;2023-08-01T01:53:15;16.10;99.90
51725;DHT22;37801;53.224;6.552;2023-08-01T01:56:01;16.20;99.90
51725;DHT22;37801;53.224;6.552;2023-08-01T01:58:47;16.00;99.90
51725;DHT22;37801;53.224;6.552;2023-08-01T02:01:32;16.30;99.90
51725;DHT22;37801;53.224;6.552;2023-08-01T02:04:18;16.60;99.90
51725;DHT22;37801;53.224;6.552;2023-08-01T02:07:04;16.70;99.90
51725;DHT22;37801;53.224;6.552;2023-08-01T02:09:29;16.10;99.90
51725;DHT22;37801;53.224;6.552;2023-08-01T02:11:55;15.80;99.90
51725;DHT22;37801;53.224;6.552;2023-08-01T02:14:41;16.40;99.90
51725;DHT22;37801;53.224;6.552;2023-08-01T02:17:26;15.90;99.90
51725;DHT22;37801;53.224;6.552;2023-08-01T02:20:12;16.30;99.90
51725;DHT22;37801;53.224;6.552;2023-08-01T02:22:58;15.90;99.90
51725;DHT22;37801;53.224;6.552;2023-08-01T02:25:43;16.20;99.90
51725;DHT22;37801;53.224;6.552;2023-08-01T02:28:29;15.80;99.90
51725;DHT22;37801;53.224;6.552;2023-08-01T02:31:15;16.10;99.90
51725;DHT22;37801;53.224;6.552;2023-08-01T02:34:01;15.80;99.90
51725;DHT22;37801;53.224;6.552;2023-08-01T02:36:47;16.00;99.90
51725;DHT22;37801;53.224;6.552;2023-08-01T02:39:32;16.20;99.90
51725;DHT22;37801;53.224;6.552;2023-08-01T02:42:18;15.70;99.90
51725;DHT22;37801;53.224;6.552;2023-08-01T02:44:43;16.00;99.90
51725;DHT22;37801;53.224;6.552;2023-08-01T02:47:09;15.80;99.90
51725;DHT22;37801;53.224;6.552;2023-08-01T02:49:35;16.40;99.90
51725;DHT22;37801;53.224;6.552;2023-08-01T02:52:00;16.40;99.90
51725;DHT22;37801;53.224;6.552;2023-08-01T02:54:26;15.90;99.90
51725;DHT22;37801;53.224;6.552;2023-08-01T02:56:51;16.20;99.90
51725;DHT22;37801;53.224;6.552;2023-08-01T02:59:17;15.70;99.90
51725;DHT22;37801;53.224;6.552;2023-08-01T03:01:45;16.30;99.90
51725;DHT22;37801;53.224;6.552;2023-08-01T03:04:11;16.00;99.90
51725;DHT22;37801;53.224;6.552;2023-08-01T03:06:57;16.30;99.90
51725;DHT22;37801;53.224;6.552;2023-08-01T03:09:42;16.20;99.90
51725;DHT22;37801;53.224;6.552;2023-08-01T03:12:28;16.30;99.90
51725;DHT22;37801;53.224;6.552;2023-08-01T03:15:13;16.20;99.90
51725;DHT22;37801;53.224;6.552;2023-08-01T03:17:59;15.90;99.90
51725;DHT22;37801;53.224;6.552;2023-08-01T03:20:44;16.50;99.90
51725;DHT22;37801;53.224;6.552;2023-08-01T03:23:30;15.60;99.90
51725;DHT22;37801;53.224;6.552;2023-08-01T03:26:16;16.30;99.90
51725;DHT22;37801;53.224;6.552;2023-08-01T03:29:01;15.70;99.90
51725;DHT22;37801;53.224;6.552;2023-08-01T03:31:47;16.60;99.90
51725;DHT22;37801;53.224;6.552;2023-08-01T03:34:33;15.90;99.90
51725;DHT22;37801;53.224;6.552;2023-08-01T03:37:18;16.70;99.90
51725;DHT22;37801;53.224;6.552;2023-08-01T03:40:04;16.00;99.90
51725;DHT22;37801;53.224;6.552;2023-08-01T03:42:50;16.60;99.90
51725;DHT22;37801;53.224;6.552;2023-08-01T03:45:36;16.60;99.90
51725;DHT22;37801;53.224;6.552;2023-08-01T03:48:21;16.60;99.90
51725;DHT22;37801;53.224;6.552;2023-08-01T03:51:07;16.50;99.90
51725;DHT22;37801;53.224;6.552;2023-08-01T03:53:52;15.80;99.90
51725;DHT22;37801;53.224;6.552;2023-08-01T03:56:38;15.80;99.90
51725;DHT22;37801;53.224;6.552;2023-08-01T03:59:24;15.80;99.90
51725;DHT22;37801;53.224;6.552;2023-08-01T04:02:09;15.80;99.90
51725;DHT22;37801;53.224;6.552;2023-08-01T04:04:35;16.50;99.90
51725;DHT22;37801;53.224;6.552;2023-08-01T04:07:01;16.10;99.90
51725;DHT22;37801;53.224;6.552;2023-08-01T04:09:26;16.30;99.90
51725;DHT22;37801;53.224;6.552;2023-08-01T04:11:52;16.50;99.90
51725;DHT22;37801;53.224;6.552;2023-08-01T04:14:17;16.50;99.90
51725;DHT22;37801;53.224;6.552;2023-08-01T04:16:43;16.70;99.90
51725;DHT22;37801;53.224;6.552;2023-08-01T04:19:29;15.80;99.90
51725;DHT22;37801;53.224;6.552;2023-08-01T04:22:15;16.30;99.90
51725;DHT22;37801;53.224;6.552;2023-08-01T04:25:03;15.70;99.90
51725;DHT22;37801;53.224;6.552;2023-08-01T04:27:49;16.30;99.90
51725;DHT22;37801;53.224;6.552;2023-08-01T04:30:34;16.40;99.90
51725;DHT22;37801;53.224;6.552;2023-08-01T04:33:20;15.90;99.90
51725;DHT22;37801;53.224;6.552;2023-08-01T04:36:06;16.00;99.90
51725;DHT22;37801;53.224;6.552;2023-08-01T04:38:51;16.00;99.90
51725;DHT22;37801;53.224;6.552;2023-08-01T04:41:37;16.60;99.90
51725;DHT22;37801;53.224;6.552;2023-08-01T04:44:22;16.10;99.90
51725;DHT22;37801;53.224;6.552;2023-08-01T04:47:08;16.70;99.90
51725;DHT22;37801;53.224;6.552;2023-08-01T04:49:53;16.00;99.90
51725;DHT22;37801;53.224;6.552;2023-08-01T04:52:39;16.40;99.90
51725;DHT22;37801;53.224;6.552;2023-08-01T04:55:24;15.90;99.90
51725;DHT22;37801;53.224;6.552;2023-08-01T04:58:10;16.60;99.90
51725;DHT22;37801;53.224;6.552;2023-08-01T05:00:56;16.50;99.90
51725;DHT22;37801;53.224;6.552;2023-08-01T05:03:41;16.50;99.90
51725;DHT22;37801;53.224;6.552;2023-08-01T05:06:27;16.60;99.90
51725;DHT22;37801;53.224;6.552;2023-08-01T05:09:12;15.90;99.90
51725;DHT22;37801;53.224;6.552;2023-08-01T05:11:58;16.70;99.90
51725;DHT22;37801;53.224;6.552;2023-08-01T05:14:44;16.20;99.90
51725;DHT22;37801;53.224;6.552;2023-08-01T05:17:29;16.80;99.90
51725;DHT22;37801;53.224;6.552;2023-08-01T05:20:15;17.10;99.90
51725;DHT22;37801;53.224;6.552;2023-08-01T05:23:00;17.30;99.90
51725;DHT22;37801;53.224;6.552;2023-08-01T05:25:46;17.30;99.90
51725;DHT22;37801;53.224;6.552;2023-08-01T05:28:32;16.20;99.90
51725;DHT22;37801;53.224;6.552;2023-08-01T05:31:17;16.70;99.90
51725;DHT22;37801;53.224;6.552;2023-08-01T05:34:03;17.20;99.90
51725;DHT22;37801;53.224;6.552;2023-08-01T05:36:48;17.10;99.90
51725;DHT22;37801;53.224;6.552;2023-08-01T05:39:34;17.00;99.90
51725;DHT22;37801;53.224;6.552;2023-08-01T05:42:19;16.70;99.90
51725;DHT22;37801;53.224;6.552;2023-08-01T05:45:05;16.90;99.90
51725;DHT22;37801;53.224;6.552;2023-08-01T05:47:51;16.80;99.90
51725;DHT22;37801;53.224;6.552;2023-08-01T05:50:36;17.00;99.90
51725;DHT22;37801;53.224;6.552;2023-08-01T05:53:22;16.00;99.90
51725;DHT22;37801;53.224;6.552;2023-08-01T05:56:08;16.80;99.90
51725;DHT22;37801;53.224;6.552;2023-08-01T05:58:53;16.90;99.90
51725;DHT22;37801;53.224;6.552;2023-08-01T06:01:39;16.90;99.90
51725;DHT22;37801;53.224;6.552;2023-08-01T06:04:24;16.20;99.90
51725;DHT22;37801;53.224;6.552;2023-08-01T06:07:10;16.50;99.90
51725;DHT22;37801;53.224;6.552;2023-08-01T06:09:56;16.60;99.90
51725;DHT22;37801;53.224;6.552;2023-08-01T06:12:41;16.40;99.90
51725;DHT22;37801;53.224;6.552;2023-08-01T06:15:27;16.40;99.90
51725;DHT22;37801;53.224;6.552;2023-08-01T06:18:12;16.70;99.90
51725;DHT22;37801;53.224;6.552;2023-08-01T06:20:38;16.60;99.90
51725;DHT22;37801;53.224;6.552;2023-08-01T06:23:04;16.80;99.90
51725;DHT22;37801;53.224;6.552;2023-08-01T06:25:30;16.60;99.90
51725;DHT22;37801;53.224;6.552;2023-08-01T06:27:56;16.30;99.90
51725;DHT22;37801;53.224;6.552;2023-08-01T06:30:21;17.20;99.90
51725;DHT22;37801;53.224;6.552;2023-08-01T06:32:47;17.30;99.90
51725;DHT22;37801;53.224;6.552;2023-08-01T06:35:13;17.20;99.90
51725;DHT22;37801;53.224;6.552;2023-08-01T06:37:38;17.30;99.90
51725;DHT22;37801;53.224;6.552;2023-08-01T06:40:05;16.30;99.90
51725;DHT22;37801;53.224;6.552;2023-08-01T06:42:30;16.80;99.90
51725;DHT22;37801;53.224;6.552;2023-08-01T06:44:56;16.60;99.90
51725;DHT22;37801;53.224;6.552;2023-08-01T06:47:22;16.60;99.90
51725;DHT22;37801;53.224;6.552;2023-08-01T06:49:47;16.60;99.90
51725;DHT22;37801;53.224;6.552;2023-08-01T06:52:33;16.60;99.90
51725;DHT22;37801;53.224;6.552;2023-08-01T06:54:59;16.90;99.90
51725;DHT22;37801;53.224;6.552;2023-08-01T06:57:24;16.70;99.90
51725;DHT22;37801;53.224;6.552;2023-08-01T06:59:50;16.60;99.90
51725;DHT22;37801;53.224;6.552;2023-08-01T07:02:16;16.40;99.90
51725;DHT22;37801;53.224;6.552;2023-08-01T07:04:41;17.30;99.90
51725;DHT22;37801;53.224;6.552;2023-08-01T07:07:07;16.80;99.90
51725;DHT22;37801;53.224;6.552;2023-08-01T07:09:34;16.90;99.90
51725;DHT22;37801;53.224;6.552;2023-08-01T07:11:59;17.10;99.90
51725;DHT22;37801;53.224;6.552;2023-08-01T07:14:25;17.60;99.90
51725;DHT22;37801;53.224;6.552;2023-08-01T07:16:51;16.70;99.90
51725;DHT22;37801;53.224;6.552;2023-08-01T07:19:16;17.00;99.90
51725;DHT22;37801;53.224;6.552;2023-08-01T07:21:42;17.10;99.90
51725;DHT22;37801;53.224;6.552;2023-08-01T07:24:10;16.80;99.90
51725;DHT22;37801;53.224;6.552;2023-08-01T07:26:56;17.20;99.90
51725;DHT22;37801;53.224;6.552;2023-08-01T07:29:21;16.90;99.90
51725;DHT22;37801;53.224;6.552;2023-08-01T07:31:47;17.30;99.90
51725;DHT22;37801;53.224;6.552;2023-08-01T07:34:12;17.30;99.90
51725;DHT22;37801;53.224;6.552;2023-08-01T07:36:39;17.20;99.90
51725;DHT22;37801;53.224;6.552;2023-08-01T07:39:04;17.50;99.90
51725;DHT22;37801;53.224;6.552;2023-08-01T07:41:30;17.60;99.90
51725;DHT22;37801;53.224;6.552;2023-08-01T07:44:16;17.60;99.90
51725;DHT22;37801;53.224;6.552;2023-08-01T07:47:01;17.40;99.90
51725;DHT22;37801;53.224;6.552;2023-08-01T07:49:47;17.20;99.90
51725;DHT22;37801;53.224;6.552;2023-08-01T07:52:32;17.30;99.90
51725;DHT22;37801;53.224;6.552;2023-08-01T07:55:18;17.10;99.90
51725;DHT22;37801;53.224;6.552;2023-08-01T07:58:04;17.30;99.90
51725;DHT22;37801;53.224;6.552;2023-08-01T08:00:49;17.20;99.90
51725;DHT22;37801;53.224;6.552;2023-08-01T08:03:15;17.50;99.90
51725;DHT22;37801;53.224;6.552;2023-08-01T08:05:40;17.60;99.90
51725;DHT22;37801;53.224;6.552;2023-08-01T08:08:06;17.70;99.90
51725;DHT22;37801;53.224;6.552;2023-08-01T08:10:32;17.60;99.90
51725;DHT22;37801;53.224;6.552;2023-08-01T08:12:57;17.80;99.90
51725;DHT22;37801;53.224;6.552;2023-08-01T08:15:43;17.70;99.90
51725;DHT22;37801;53.224;6.552;2023-08-01T08:18:29;17.50;99.90
51725;DHT22;37801;53.224;6.552;2023-08-01T08:20:54;17.90;99.90
51725;DHT22;37801;53.224;6.552;2023-08-01T08:23:20;18.00;99.90
51725;DHT22;37801;53.224;6.552;2023-08-01T08:25:46;17.90;99.90
51725;DHT22;37801;53.224;6.552;2023-08-01T08:28:33;17.70;99.90
51725;DHT22;37801;53.224;6.552;2023-08-01T08:31:18;17.90;99.90
51725;DHT22;37801;53.224;6.552;2023-08-01T08:34:04;17.40;99.90
51725;DHT22;37801;53.224;6.552;2023-08-01T08:36:49;17.70;99.90
51725;DHT22;37801;53.224;6.552;2023-08-01T08:39:35;17.50;99.90
51725;DHT22;37801;53.224;6.552;2023-08-01T08:42:21;17.30;99.90
51725;DHT22;37801;53.224;6.552;2023-08-01T08:45:06;17.10;99.90
51725;DHT22;37801;53.224;6.552;2023-08-01T08:47:55;17.10;99.90
51725;DHT22;37801;53.224;6.552;2023-08-01T08:50:46;16.80;99.90
51725;DHT22;37801;53.224;6.552;2023-08-01T08:53:32;17.00;99.90
51725;DHT22;37801;53.224;6.552;2023-08-01T08:56:20;16.90;99.90
51725;DHT22;37801;53.224;6.552;2023-08-01T08:59:06;17.00;99.90
51725;DHT22;37801;53.224;6.552;2023-08-01T09:01:52;16.80;99.90
51725;DHT22;37801;53.224;6.552;2023-08-01T09:04:38;17.00;99.90
51725;DHT22;37801;53.224;6.552;2023-08-01T09:07:24;16.80;99.90
51725;DHT22;37801;53.224;6.552;2023-08-01T09:10:11;16.90;99.90
51725;DHT22;37801;53.224;6.552;2023-08-01T09:12:56;17.20;99.90
51725;DHT22;37801;53.224;6.552;2023-08-01T09:15:42;17.20;99.90
51725;DHT22;37801;53.224;6.552;2023-08-01T09:18:28;17.00;99.90
51725;DHT22;37801;53.224;6.552;2023-08-01T09:21:14;17.00;99.90
51725;DHT22;37801;53.224;6.552;2023-08-01T09:24:10;17.40;99.90
51725;DHT22;37801;53.224;6.552;2023-08-01T09:27:03;17.40;99.90
51725;DHT22;37801;53.224;6.552;2023-08-01T09:29:48;18.10;99.90
51725;DHT22;37801;53.224;6.552;2023-08-01T09:32:34;17.60;99.90
51725;DHT22;37801;53.224;6.552;2023-08-01T09:35:20;18.20;99.90
51725;DHT22;37801;53.224;6.552;2023-08-01T09:37:47;17.60;99.90
51725;DHT22;37801;53.224;6.552;2023-08-01T09:40:14;18.00;99.90
51725;DHT22;37801;53.224;6.552;2023-08-01T09:42:44;17.70;99.90
51725;DHT22;37801;53.224;6.552;2023-08-01T09:45:17;17.10;99.90
51725;DHT22;37801;53.224;6.552;2023-08-01T09:47:44;16.70;99.90
51725;DHT22;37801;53.224;6.552;2023-08-01T09:50:10;16.70;99.90
51725;DHT22;37801;53.224;6.552;2023-08-01T09:52:37;17.20;99.90
51725;DHT22;37801;53.224;6.552;2023-08-01T09:55:32;16.80;99.90
51725;DHT22;37801;53.224;6.552;2023-08-01T09:58:22;16.70;99.90
51725;DHT22;37801;53.224;6.552;2023-08-01T10:01:09;16.90;99.90
51725;DHT22;37801;53.224;6.552;2023-08-01T10:03:56;17.10;99.90
51725;DHT22;37801;53.224;6.552;2023-08-01T10:06:43;16.90;99.90
51725;DHT22;37801;53.224;6.552;2023-08-01T10:09:32;17.30;99.90
51725;DHT22;37801;53.224;6.552;2023-08-01T10:12:18;17.40;99.90
51725;DHT22;37801;53.224;6.552;2023-08-01T10:15:05;17.30;99.90
51725;DHT22;37801;53.224;6.552;2023-08-01T10:17:51;17.30;99.90
51725;DHT22;37801;53.224;6.552;2023-08-01T10:20:37;17.40;99.90
51725;DHT22;37801;53.224;6.552;2023-08-01T10:23:24;17.60;99.90
51725;DHT22;37801;53.224;6.552;2023-08-01T10:26:11;17.60;99.90
51725;DHT22;37801;53.224;6.552;2023-08-01T10:28:56;17.70;99.90
51725;DHT22;37801;53.224;6.552;2023-08-01T10:31:52;17.70;99.90
51725;DHT22;37801;53.224;6.552;2023-08-01T10:34:38;17.70;99.90
51725;DHT22;37801;53.224;6.552;2023-08-01T10:37:24;17.60;99.90
51725;DHT22;37801;53.224;6.552;2023-08-01T10:40:10;17.60;99.90
51725;DHT22;37801;53.224;6.552;2023-08-01T10:42:56;17.70;99.90
51725;DHT22;37801;53.224;6.552;2023-08-01T10:45:41;17.70;99.90
51725;DHT22;37801;53.224;6.552;2023-08-01T10:48:27;17.90;99.90
51725;DHT22;37801;53.224;6.552;2023-08-01T10:51:12;18.10;99.90
51725;DHT22;37801;53.224;6.552;2023-08-01T10:53:58;18.10;99.90
51725;DHT22;37801;53.224;6.552;2023-08-01T10:56:47;18.20;99.90
51725;DHT22;37801;53.224;6.552;2023-08-01T10:59:34;18.20;99.90
51725;DHT22;37801;53.224;6.552;2023-08-01T11:02:25;18.10;99.90
51725;DHT22;37801;53.224;6.552;2023-08-01T11:05:11;18.00;99.90
51725;DHT22;37801;53.224;6.552;2023-08-01T11:08:00;17.80;99.90
51725;DHT22;37801;53.224;6.552;2023-08-01T11:10:49;17.80;99.90
51725;DHT22;37801;53.224;6.552;2023-08-01T11:13:34;17.60;99.90
51725;DHT22;37801;53.224;6.552;2023-08-01T11:16:20;17.80;99.90
51725;DHT22;37801;53.224;6.552;2023-08-01T11:19:06;17.90;99.90
51725;DHT22;37801;53.224;6.552;2023-08-01T11:21:52;18.10;99.90
51725;DHT22;37801;53.224;6.552;2023-08-01T11:24:38;18.20;99.90
51725;DHT22;37801;53.224;6.552;2023-08-01T11:27:25;18.40;99.90
51725;DHT22;37801;53.224;6.552;2023-08-01T11:30:11;18.50;99.90
51725;DHT22;37801;53.224;6.552;2023-08-01T11:32:56;18.50;99.90
51725;DHT22;37801;53.224;6.552;2023-08-01T11:35:42;18.40;99.90
51725;DHT22;37801;53.224;6.552;2023-08-01T11:38:30;18.50;99.90
51725;DHT22;37801;53.224;6.552;2023-08-01T11:41:16;18.50;99.90
51725;DHT22;37801;53.224;6.552;2023-08-01T11:44:03;18.50;99.90
51725;DHT22;37801;53.224;6.552;2023-08-01T11:46:48;18.60;99.90
51725;DHT22;37801;53.224;6.552;2023-08-01T11:49:34;18.70;99.90
51725;DHT22;37801;53.224;6.552;2023-08-01T11:52:24;18.80;99.90
51725;DHT22;37801;53.224;6.552;2023-08-01T11:55:22;18.90;99.90
51725;DHT22;37801;53.224;6.552;2023-08-01T11:58:07;19.00;99.90
51725;DHT22;37801;53.224;6.552;2023-08-01T12:01:08;19.10;99.90
51725;DHT22;37801;53.224;6.552;2023-08-01T12:03:55;19.20;99.90
51725;DHT22;37801;53.224;6.552;2023-08-01T12:06:40;19.00;99.90
51725;DHT22;37801;53.224;6.552;2023-08-01T12:09:26;19.00;99.90
51725;DHT22;37801;53.224;6.552;2023-08-01T12:12:11;19.00;99.90
51725;DHT22;37801;53.224;6.552;2023-08-01T12:14:57;19.00;99.90
51725;DHT22;37801;53.224;6.552;2023-08-01T12:17:43;19.00;99.90
51725;DHT22;37801;53.224;6.552;2023-08-01T12:20:28;19.00;99.90
51725;DHT22;37801;53.224;6.552;2023-08-01T12:23:14;19.00;99.90
51725;DHT22;37801;53.224;6.552;2023-08-01T12:25:59;19.00;99.90
51725;DHT22;37801;53.224;6.552;2023-08-01T12:28:45;19.00;99.90
51725;DHT22;37801;53.224;6.552;2023-08-01T12:31:31;19.00;99.90
51725;DHT22;37801;53.224;6.552;2023-08-01T12:34:16;19.00;99.90
51725;DHT22;37801;53.224;6.552;2023-08-01T12:37:02;19.00;99.90
51725;DHT22;37801;53.224;6.552;2023-08-01T12:39:47;19.10;99.90
51725;DHT22;37801;53.224;6.552;2023-08-01T12:42:33;19.30;99.90
51725;DHT22;37801;53.224;6.552;2023-08-01T12:45:19;19.30;99.90
51725;DHT22;37801;53.224;6.552;2023-08-01T12:48:04;19.30;99.90
51725;DHT22;37801;53.224;6.552;2023-08-01T12:50:50;19.40;99.90
51725;DHT22;37801;53.224;6.552;2023-08-01T12:53:36;19.40;99.90
51725;DHT22;37801;53.224;6.552;2023-08-01T12:56:22;19.50;99.90
51725;DHT22;37801;53.224;6.552;2023-08-01T12:59:07;19.50;99.90
51725;DHT22;37801;53.224;6.552;2023-08-01T13:01:53;19.50;99.90
51725;DHT22;37801;53.224;6.552;2023-08-01T13:04:38;19.50;99.90
51725;DHT22;37801;53.224;6.552;2023-08-01T13:07:24;19.60;99.90
51725;DHT22;37801;53.224;6.552;2023-08-01T13:10:10;19.70;99.90
51725;DHT22;37801;53.224;6.552;2023-08-01T13:12:55;19.90;99.90
51725;DHT22;37801;53.224;6.552;2023-08-01T13:15:41;20.00;99.90
51725;DHT22;37801;53.224;6.552;2023-08-01T13:18:27;20.00;99.90
51725;DHT22;37801;53.224;6.552;2023-08-01T13:21:13;20.00;99.90
51725;DHT22;37801;53.224;6.552;2023-08-01T13:23:58;19.90;99.90
51725;DHT22;37801;53.224;6.552;2023-08-01T13:26:44;19.90;99.90
51725;DHT22;37801;53.224;6.552;2023-08-01T13:29:29;19.70;99.90
51725;DHT22;37801;53.224;6.552;2023-08-01T13:32:15;19.70;99.90
51725;DHT22;37801;53.224;6.552;2023-08-01T13:35:01;19.60;99.90
51725;DHT22;37801;53.224;6.552;2023-08-01T13:37:47;19.50;99.90
51725;DHT22;37801;53.224;6.552;2023-08-01T13:40:32;19.40;99.90
51725;DHT22;37801;53.224;6.552;2023-08-01T13:43:18;19.30;99.90
51725;DHT22;37801;53.224;6.552;2023-08-01T13:46:13;19.30;99.90
51725;DHT22;37801;53.224;6.552;2023-08-01T13:48:59;19.30;99.90
51725;DHT22;37801;53.224;6.552;2023-08-01T13:51:44;19.30;99.90
51725;DHT22;37801;53.224;6.552;2023-08-01T13:54:30;19.30;99.90
51725;DHT22;37801;53.224;6.552;2023-08-01T13:56:56;19.20;99.90
51725;DHT22;37801;53.224;6.552;2023-08-01T13:59:22;19.30;99.90
51725;DHT22;37801;53.224;6.552;2023-08-01T14:01:48;19.30;99.90
51725;DHT22;37801;53.224;6.552;2023-08-01T14:04:34;19.30;99.90
51725;DHT22;37801;53.224;6.552;2023-08-01T14:07:15;19.20;99.90
51725;DHT22;37801;53.224;6.552;2023-08-01T14:09:41;19.30;99.90
51725;DHT22;37801;53.224;6.552;2023-08-01T14:12:07;19.30;99.90
51725;DHT22;37801;53.224;6.552;2023-08-01T14:14:33;19.30;99.90
51725;DHT22;37801;53.224;6.552;2023-08-01T14:16:58;19.30;99.90
51725;DHT22;37801;53.224;6.552;2023-08-01T14:19:24;19.30;99.90
51725;DHT22;37801;53.224;6.552;2023-08-01T14:22:09;19.30;99.90
51725;DHT22;37801;53.224;6.552;2023-08-01T14:24:55;19.40;99.90
51725;DHT22;37801;53.224;6.552;2023-08-01T14:27:41;19.40;99.90
51725;DHT22;37801;53.224;6.552;2023-08-01T14:30:27;19.40;99.90
51725;DHT22;37801;53.224;6.552;2023-08-01T14:33:13;19.50;99.90
51725;DHT22;37801;53.224;6.552;2023-08-01T14:35:58;19.50;99.90
51725;DHT22;37801;53.224;6.552;2023-08-01T14:38:44;19.40;99.90
51725;DHT22;37801;53.224;6.552;2023-08-01T14:41:30;19.20;99.90
51725;DHT22;37801;53.224;6.552;2023-08-01T14:44:16;18.90;99.90
51725;DHT22;37801;53.224;6.552;2023-08-01T14:47:02;19.00;99.90
51725;DHT22;37801;53.224;6.552;2023-08-01T14:49:47;19.00;99.90
51725;DHT22;37801;53.224;6.552;2023-08-01T14:52:33;19.00;99.90
51725;DHT22;37801;53.224;6.552;2023-08-01T14:55:18;19.10;99.90
51725;DHT22;37801;53.224;6.552;2023-08-01T14:58:04;19.10;99.90
51725;DHT22;37801;53.224;6.552;2023-08-01T15:00:50;19.20;99.90
51725;DHT22;37801;53.224;6.552;2023-08-01T15:03:35;19.20;99.90
51725;DHT22;37801;53.224;6.552;2023-08-01T15:06:21;19.30;99.90
51725;DHT22;37801;53.224;6.552;2023-08-01T15:09:06;19.30;99.90
51725;DHT22;37801;53.224;6.552;2023-08-01T15:11:52;19.30;99.90
51725;DHT22;37801;53.224;6.552;2023-08-01T15:14:38;19.40;99.90
51725;DHT22;37801;53.224;6.552;2023-08-01T15:17:24;19.50;99.90
51725;DHT22;37801;53.224;6.552;2023-08-01T15:20:10;19.40;99.90
51725;DHT22;37801;53.224;6.552;2023-08-01T15:22:56;19.40;99.90
51725;DHT22;37801;53.224;6.552;2023-08-01T15:25:50;19.30;99.90
51725;DHT22;37801;53.224;6.552;2023-08-01T15:28:36;19.30;99.90
51725;DHT22;37801;53.224;6.552;2023-08-01T15:31:21;19.30;99.90
51725;DHT22;37801;53.224;6.552;2023-08-01T15:34:07;19.20;99.90
51725;DHT22;37801;53.224;6.552;2023-08-01T15:36:55;19.20;99.90
51725;DHT22;37801;53.224;6.552;2023-08-01T15:39:41;19.20;99.90
51725;DHT22;37801;53.224;6.552;2023-08-01T15:42:26;19.10;99.90
51725;DHT22;37801;53.224;6.552;2023-08-01T15:45:12;19.10;99.90
51725;DHT22;37801;53.224;6.552;2023-08-01T15:47:58;19.10;99.90
51725;DHT22;37801;53.224;6.552;2023-08-01T15:50:44;19.00;99.90
51725;DHT22;37801;53.224;6.552;2023-08-01T15:53:29;19.00;99.90
51725;DHT22;37801;53.224;6.552;2023-08-01T15:56:15;19.00;99.90
51725;DHT22;37801;53.224;6.552;2023-08-01T15:59:01;18.90;99.90
51725;DHT22;37801;53.224;6.552;2023-08-01T16:01:46;19.00;99.90
51725;DHT22;37801;53.224;6.552;2023-08-01T16:04:32;19.10;99.90
51725;DHT22;37801;53.224;6.552;2023-08-01T16:07:17;19.10;99.90
51725;DHT22;37801;53.224;6.552;2023-08-01T16:10:03;19.10;99.90
51725;DHT22;37801;53.224;6.552;2023-08-01T16:12:49;19.10;99.90
51725;DHT22;37801;53.224;6.552;2023-08-01T16:15:37;19.00;99.90
51725;DHT22;37801;53.224;6.552;2023-08-01T16:18:03;19.00;99.90
51725;DHT22;37801;53.224;6.552;2023-08-01T16:20:28;18.90;99.90
51725;DHT22;37801;53.224;6.552;2023-08-01T16:22:54;18.90;99.90
51725;DHT22;37801;53.224;6.552;2023-08-01T16:25:20;18.90;99.90
51725;DHT22;37801;53.224;6.552;2023-08-01T16:27:45;18.90;99.90
51725;DHT22;37801;53.224;6.552;2023-08-01T16:30:11;19.00;99.90
51725;DHT22;37801;53.224;6.552;2023-08-01T16:32:37;19.00;99.90
51725;DHT22;37801;53.224;6.552;2023-08-01T16:35:23;19.00;99.90
51725;DHT22;37801;53.224;6.552;2023-08-01T16:38:09;19.00;99.90
51725;DHT22;37801;53.224;6.552;2023-08-01T16:40:57;19.00;99.90
51725;DHT22;37801;53.224;6.552;2023-08-01T16:43:42;19.00;99.90
51725;DHT22;37801;53.224;6.552;2023-08-01T16:46:28;18.90;99.90
51725;DHT22;37801;53.224;6.552;2023-08-01T16:49:13;18.90;99.90
51725;DHT22;37801;53.224;6.552;2023-08-01T16:51:59;18.90;99.90